Time;durP1;ratioP1;P1;durP2;ratioP2;P2;SDS_P1;SDS_P2;PMS_P1;PMS_P2;Temp;Humidity;BMP_temperature;BMP_pressure;BME280_temperature;BME280_humidity;BME280_pressure;Samples;Min_cycle;Max_cycle;Signal;HPM_P1;HPM_P2
2023/01/20 00:00:52;;;;;;;6.88;2.30;;;;;;;12.10;65.18;95735.63;5114833;28;20051;-65
2023/01/20 00:03:19;;;;;;;5.85;2.47;;;;;;;12.05;64.84;95732.38;5116443;28;20051;-65
2023/01/20 00:05:52;;;;;;;14.90;2.88;;;;;;;12.13;64.62;95725.78;5116537;28;20063;-67
2023/01/20 00:08:20;;;;;;;12.98;2.88;;;;;;;12.16;65.11;95727.38;5116731;27;20096;-66
2023/01/20 00:10:47;;;;;;;10.15;2.97;;;;;;;12.19;64.79;95727.19;5116440;28;20044;-65
2023/01/20 00:13:14;;;;;;;9.45;2.67;;;;;;;12.22;64.90;95716.53;5116485;28;20109;-67
2023/01/20 00:15:43;;;;;;;15.63;3.42;;;;;;;12.30;64.41;95723.09;5116331;28;20044;-67
2023/01/20 00:18:10;;;;;;;13.90;3.95;;;;;;;12.31;64.13;95727.44;5116272;28;20044;-63
2023/01/20 00:20:37;;;;;;;10.93;3.33;;;;;;;12.30;64.18;95717.88;5116439;28;20048;-65
2023/01/20 00:23:04;;;;;;;10.63;3.17;;;;;;;12.26;64.22;95714.59;5116291;28;20055;-65
2023/01/20 00:25:32;;;;;;;10.52;2.50;;;;;;;12.24;64.64;95708.59;5116213;28;20481;-64
2023/01/20 00:27:59;;;;;;;14.98;3.33;;;;;;;12.17;64.83;95720.34;5116233;28;20455;-63
2023/01/20 00:30:26;;;;;;;19.00;3.42;;;;;;;12.21;64.91;95704.38;5116225;28;20100;-67
2023/01/20 00:32:54;;;;;;;7.28;2.58;;;;;;;12.24;64.76;95716.44;5116420;28;20044;-66
2023/01/20 00:35:21;;;;;;;12.63;3.65;;;;;;;12.22;64.42;95710.47;5116203;27;20048;-65
2023/01/20 00:37:49;;;;;;;14.48;3.53;;;;;;;12.17;65.06;95718.59;5115881;28;20047;-67
2023/01/20 00:40:16;;;;;;;15.45;3.55;;;;;;;12.13;65.29;95711.81;5115967;28;20052;-64
2023/01/20 00:42:43;;;;;;;9.82;3.70;;;;;;;12.15;65.29;95701.25;5116016;28;20485;-68
2023/01/20 00:45:11;;;;;;;16.05;3.65;;;;;;;12.07;65.70;95692.03;5116010;28;20100;-65
2023/01/20 00:47:38;;;;;;;10.20;3.83;;;;;;;11.99;65.98;95712.59;5115887;28;20459;-68
2023/01/20 00:50:08;;;;;;;13.23;3.58;;;;;;;11.97;66.20;95698.72;5115618;28;20492;-63
2023/01/20 00:52:35;;;;;;;6.80;2.88;;;;;;;11.97;66.08;95696.09;5115847;28;20067;-65
2023/01/20 00:55:02;;;;;;;9.48;3.20;;;;;;;11.97;65.83;95696.09;5115840;28;20145;-64
2023/01/20 00:57:29;;;;;;;9.95;3.20;;;;;;;11.99;65.94;95700.34;5115550;28;20134;-68
2023/01/20 00:59:57;;;;;;;11.65;3.75;;;;;;;11.98;65.94;95690.78;5115666;28;20048;-67
2023/01/20 01:02:25;;;;;;;14.60;3.90;;;;;;;12.00;65.68;95709.03;5115537;28;20054;-64
2023/01/20 01:04:53;;;;;;;10.50;3.80;;;;;;;11.88;66.03;95706.19;5115430;28;20043;-68
2023/01/20 01:07:21;;;;;;;16.25;4.05;;;;;;;11.92;66.11;95698.97;5115307;28;20043;-62
2023/01/20 01:09:49;;;;;;;15.18;4.13;;;;;;;11.92;66.16;95698.16;5115295;28;20051;-64
2023/01/20 01:12:16;;;;;;;9.57;3.92;;;;;;;11.88;66.25;95700.94;5115377;28;20043;-64
2023/01/20 01:14:43;;;;;;;13.05;3.92;;;;;;;11.86;66.31;95688.88;5115334;28;20047;-68
2023/01/20 01:17:10;;;;;;;17.70;4.22;;;;;;;11.88;65.98;95679.13;5115173;28;20047;-65
2023/01/20 01:19:37;;;;;;;15.50;4.30;;;;;;;11.85;66.13;95688.00;5115174;28;20544;-64
2023/01/20 01:22:04;;;;;;;12.98;4.25;;;;;;;11.80;66.25;95676.13;5115073;28;20556;-67
2023/01/20 01:24:32;;;;;;;10.73;3.45;;;;;;;11.78;65.89;95673.56;5114958;28;20047;-67
2023/01/20 01:27:00;;;;;;;15.88;3.75;;;;;;;11.75;66.32;95685.06;5115014;28;20478;-62
2023/01/20 01:29:26;;;;;;;12.27;3.42;;;;;;;11.69;67.03;95689.81;5115005;28;20123;-64
2023/01/20 01:31:53;;;;;;;9.93;4.20;;;;;;;11.69;67.30;95697.66;5114948;28;20043;-65
2023/01/20 01:34:21;;;;;;;10.85;3.83;;;;;;;11.66;67.47;95697.84;5114920;28;20528;-68
2023/01/20 01:36:48;;;;;;;13.43;3.80;;;;;;;11.65;67.26;95704.00;5114704;28;20043;-68
2023/01/20 01:39:16;;;;;;;17.15;4.22;;;;;;;11.59;67.55;95695.56;5114892;28;20051;-66
2023/01/20 01:41:45;;;;;;;12.75;3.70;;;;;;;11.60;67.11;95691.16;5114949;28;20075;-65
2023/01/20 01:44:14;;;;;;;10.05;4.32;;;;;;;11.62;66.61;95692.75;5114786;28;20473;-63
2023/01/20 01:46:42;;;;;;;15.27;4.32;;;;;;;11.67;66.88;95696.91;5114768;28;20065;-63
2023/01/20 01:49:14;;;;;;;12.60;3.33;;;;;;;11.67;66.90;95684.66;5114490;28;20088;-66
2023/01/20 01:51:46;;;;;;;16.17;4.63;;;;;;;11.71;66.47;95677.47;5114700;28;20087;-65
2023/01/20 01:54:17;;;;;;;19.63;5.07;;;;;;;11.73;66.63;95691.31;5114504;28;20047;-62
2023/01/20 01:56:48;;;;;;;11.73;4.55;;;;;;;11.69;66.44;95677.56;5114435;28;20105;-64
2023/01/20 01:59:17;;;;;;;14.50;4.18;;;;;;;11.70;66.32;95675.78;5114349;28;20051;-66
2023/01/20 02:01:49;;;;;;;9.65;4.30;;;;;;;11.66;66.13;95669.88;5114441;28;20096;-64
2023/01/20 02:04:17;;;;;;;11.32;3.85;;;;;;;11.66;66.28;95669.03;5114146;28;20280;-66
2023/01/20 02:06:47;;;;;;;14.52;4.55;;;;;;;11.60;66.67;95672.84;5114520;28;20135;-69
2023/01/20 02:09:14;;;;;;;18.45;5.00;;;;;;;11.60;67.00;95655.34;5114206;28;20044;-66
2023/01/20 02:11:47;;;;;;;9.98;4.18;;;;;;;11.52;67.40;95646.22;5114316;28;20047;-63
2023/01/20 02:14:17;;;;;;;12.48;4.28;;;;;;;11.49;67.43;95650.72;5114327;28;20043;-67
2023/01/20 02:16:56;;;;;;;13.30;5.00;;;;;;;11.48;67.42;95659.50;5114136;28;20047;-67
2023/01/20 02:20:02;;;;;;;11.73;4.30;;;;;;;11.45;67.39;95656.19;5114146;28;20128;-65
2023/01/20 02:22:36;;;;;;;10.18;4.18;;;;;;;11.34;66.95;95646.31;5113802;28;20164;-66
2023/01/20 02:25:39;;;;;;;12.50;4.63;;;;;;;11.40;66.54;95640.75;5114040;28;20040;-66
2023/01/20 02:28:54;;;;;;;12.77;6.53;;;;;;;11.39;66.68;95639.06;5113879;28;20495;-65
2023/01/20 02:31:50;;;;;;;13.80;4.93;;;;;;;11.42;65.76;95638.91;5107398;28;20507;-66
2023/01/20 02:34:26;;;;;;;10.73;4.32;;;;;;;11.46;65.60;95624.69;5113821;28;20122;-65
2023/01/20 02:36:57;;;;;;;14.80;6.10;;;;;;;11.43;65.63;95614.38;5113638;28;20146;-67
2023/01/20 02:39:31;;;;;;;13.88;4.72;;;;;;;11.43;65.18;95613.53;5113925;28;20096;-62
2023/01/20 02:42:03;;;;;;;11.05;4.68;;;;;;;11.47;64.09;95613.28;5113592;28;20043;-64
2023/01/20 02:44:41;;;;;;;18.48;4.60;;;;;;;11.47;63.83;95602.81;5113774;28;20075;-67
2023/01/20 02:47:15;;;;;;;12.25;5.00;;;;;;;11.58;63.11;95625.78;5113664;28;20039;-62
2023/01/20 02:49:51;;;;;;;9.90;4.43;;;;;;;11.57;62.88;95613.63;5113693;28;20378;-67
2023/01/20 02:52:22;;;;;;;9.02;4.78;;;;;;;11.70;61.81;95608.50;5113586;28;20039;-65
2023/01/20 02:54:53;;;;;;;12.20;4.75;;;;;;;11.78;61.26;95592.38;5113612;28;20487;-68
2023/01/20 02:57:25;;;;;;;9.20;4.40;;;;;;;11.88;60.36;95603.13;5113421;28;20489;-67
2023/01/20 02:59:56;;;;;;;12.02;4.28;;;;;;;11.91;60.42;95589.84;5113639;28;20043;-66
2023/01/20 03:02:28;;;;;;;14.63;5.75;;;;;;;11.92;60.55;95607.25;5113355;28;20121;-67
2023/01/20 03:05:03;;;;;;;10.63;4.80;;;;;;;11.93;60.16;95614.22;5113517;28;20134;-61
2023/01/20 03:07:33;;;;;;;10.80;4.38;;;;;;;12.04;59.62;95608.31;5113537;28;20112;-64
2023/01/20 03:10:06;;;;;;;12.00;4.93;;;;;;;12.03;59.55;95601.41;5113484;28;20052;-64
2023/01/20 03:12:40;;;;;;;9.88;4.65;;;;;;;12.01;59.63;95603.25;5113453;28;20047;-63
2023/01/20 03:15:09;;;;;;;12.02;4.53;;;;;;;12.05;59.39;95615.28;5113422;28;20484;-65
2023/01/20 03:17:37;;;;;;;11.18;4.47;;;;;;;12.11;58.74;95606.22;5113364;28;20047;-64
2023/01/20 03:20:06;;;;;;;16.52;4.78;;;;;;;12.12;58.84;95602.66;5113285;28;20127;-64
2023/01/20 03:22:33;;;;;;;10.50;4.57;;;;;;;12.15;58.85;95605.09;5113336;28;20127;-67
2023/01/20 03:25:01;;;;;;;14.95;4.55;;;;;;;12.15;58.38;95604.25;5113360;28;20401;-65
2023/01/20 03:27:28;;;;;;;11.15;4.00;;;;;;;12.16;58.11;95593.66;5113391;28;20079;-61
2023/01/20 03:29:55;;;;;;;9.13;4.45;;;;;;;12.13;57.63;95589.47;5113365;28;20039;-65
2023/01/20 03:32:25;;;;;;;14.32;4.90;;;;;;;12.17;56.95;95589.28;5113154;28;20075;-61
2023/01/20 03:34:55;;;;;;;11.20;4.30;;;;;;;12.17;56.82;95598.00;5113549;28;20043;-63
2023/01/20 03:37:23;;;;;;;10.07;3.90;;;;;;;12.26;56.60;95604.47;5117069;28;20055;-65
2023/01/20 03:39:51;;;;;;;12.57;4.13;;;;;;;12.26;56.96;95591.38;5117210;28;20492;-64
2023/01/20 03:42:28;;;;;;;7.88;4.88;;;;;;;12.28;56.96;95583.41;5117126;28;20083;-66
2023/01/20 03:45:05;;;;;;;11.27;3.95;;;;;;;12.30;56.72;95592.00;5117064;28;20047;-66
2023/01/20 03:47:51;;;;;;;9.23;3.90;;;;;;;12.28;56.73;95583.41;5116981;28;20113;-64
2023/01/20 03:50:31;;;;;;;13.05;5.05;;;;;;;12.28;56.67;95588.66;5116881;28;20051;-65
2023/01/20 03:53:05;;;;;;;13.32;3.83;;;;;;;12.23;56.81;95594.16;5117066;28;20047;-68
2023/01/20 03:55:37;;;;;;;8.52;4.38;;;;;;;12.19;56.11;95603.16;5116802;28;20047;-64
2023/01/20 03:58:07;;;;;;;7.30;3.33;;;;;;;12.22;56.50;95605.59;5116834;28;20055;-66
2023/01/20 04:00:38;;;;;;;9.15;4.20;;;;;;;12.23;57.52;95588.91;5116733;28;20084;-67
2023/01/20 04:03:09;;;;;;;13.32;4.43;;;;;;;12.25;57.63;95587.03;5116390;28;20059;-65
2023/01/20 04:05:40;;;;;;;12.35;5.07;;;;;;;12.21;58.37;95596.03;5116711;28;20051;-65
2023/01/20 04:08:10;;;;;;;11.13;4.78;;;;;;;12.23;59.62;95602.03;5116698;28;20044;-63
2023/01/20 04:10:41;;;;;;;15.88;5.00;;;;;;;12.21;59.60;95599.50;5116598;28;20079;-64
2023/01/20 04:13:07;;;;;;;;;;;;;;;12.18;59.86;95596.19;5116852;28;20127;-62
2023/01/20 04:15:38;;;;;;;13.98;5.60;;;;;;;12.12;60.42;95592.19;5116392;28;19919;-68
2023/01/20 04:18:14;;;;;;;9.60;5.00;;;;;;;12.04;60.98;95599.63;5116441;28;20113;-67
2023/01/20 04:20:44;;;;;;;12.13;5.07;;;;;;;12.06;61.34;95602.97;5116532;28;20453;-67
2023/01/20 04:23:18;;;;;;;13.98;5.28;;;;;;;11.93;61.67;95605.50;5116568;28;20109;-63
2023/01/20 04:25:45;;;;;;;13.93;5.30;;;;;;;11.99;61.58;95603.38;5116317;28;20044;-68
2023/01/20 04:28:12;;;;;;;14.55;4.90;;;;;;;11.98;62.13;95611.31;5116269;27;20077;-64
2023/01/20 04:30:39;;;;;;;11.10;5.45;;;;;;;11.96;62.45;95614.03;5116079;28;20470;-69
2023/01/20 04:33:06;;;;;;;10.13;5.30;;;;;;;12.00;62.43;95606.81;5116207;28;20094;-65
2023/01/20 04:35:34;;;;;;;11.95;5.50;;;;;;;12.04;62.51;95610.94;5116018;28;20500;-64
2023/01/20 04:38:02;;;;;;;13.88;6.15;;;;;;;12.00;63.06;95594.56;5115952;28;20051;-65
2023/01/20 04:40:29;;;;;;;13.60;5.60;;;;;;;11.99;64.30;95592.03;5116083;28;20118;-66
2023/01/20 04:42:56;;;;;;;13.57;5.40;;;;;;;11.92;64.85;95593.34;5115873;28;20071;-64
2023/01/20 04:45:24;;;;;;;12.57;5.50;;;;;;;11.86;64.97;95589.31;5115865;28;20044;-64
2023/01/20 04:47:51;;;;;;;15.50;6.25;;;;;;;11.82;65.20;95583.38;5115465;28;20058;-63
2023/01/20 04:50:18;;;;;;;15.82;6.35;;;;;;;11.82;65.10;95577.28;5115864;28;20044;-66
2023/01/20 04:52:45;;;;;;;15.43;6.18;;;;;;;11.77;65.41;95577.56;5115887;28;20439;-64
2023/01/20 04:55:14;;;;;;;11.40;5.82;;;;;;;11.83;65.12;95571.97;5115618;28;20054;-68
2023/01/20 04:57:41;;;;;;;16.65;6.18;;;;;;;11.83;65.42;95571.13;5115828;28;20131;-65
2023/01/20 05:00:17;;;;;;;14.18;5.82;;;;;;;11.82;65.26;95578.13;5115689;28;20050;-65
2023/01/20 05:02:44;;;;;;;13.38;6.70;;;;;;;11.82;65.18;95588.63;5115396;28;20108;-67
2023/01/20 05:05:11;;;;;;;14.52;6.50;;;;;;;11.87;65.25;95577.88;5115515;28;20047;-64
2023/01/20 05:07:39;;;;;;;12.52;6.30;;;;;;;11.82;65.68;95586.00;5115447;28;20090;-68
2023/01/20 05:10:07;;;;;;;14.95;5.78;;;;;;;11.83;65.71;95589.47;5115454;28;20047;-69
2023/01/20 05:12:36;;;;;;;17.42;6.45;;;;;;;11.82;65.74;95586.00;5115502;28;20040;-67
2023/01/20 05:15:04;;;;;;;17.13;6.90;;;;;;;11.82;66.05;95585.16;5115372;28;20047;-64
2023/01/20 05:17:31;;;;;;;15.13;5.88;;;;;;;11.82;66.18;95585.16;5115273;28;20126;-67
2023/01/20 05:19:58;;;;;;;15.02;6.68;;;;;;;11.78;66.54;95566.16;5115227;28;20051;-67
2023/01/20 05:22:25;;;;;;;12.63;6.28;;;;;;;11.67;67.20;95585.13;5115078;28;20073;-67
2023/01/20 05:24:52;;;;;;;16.95;6.00;;;;;;;11.67;67.40;95585.13;5115133;28;20063;-61
2023/01/20 05:27:19;;;;;;;11.68;6.18;;;;;;;11.68;67.77;95592.03;5115251;28;20130;-65
2023/01/20 05:29:48;;;;;;;12.43;5.72;;;;;;;11.67;67.91;95597.34;5114926;28;20121;-68
2023/01/20 05:32:15;;;;;;;11.60;5.78;;;;;;;11.63;68.64;95581.81;5115047;28;20481;-67
2023/01/20 05:34:42;;;;;;;15.15;6.22;;;;;;;11.63;68.74;95601.94;5115157;28;20100;-65
2023/01/20 05:37:10;;;;;;;11.05;5.72;;;;;;;11.66;68.92;95583.44;5114875;28;20143;-64
2023/01/20 05:39:37;;;;;;;15.10;5.50;;;;;;;11.55;69.44;95585.81;5114883;28;20043;-67
2023/01/20 05:42:05;;;;;;;12.23;6.22;;;;;;;11.55;69.52;95588.44;5114865;28;20134;-63
2023/01/20 05:44:32;;;;;;;14.60;6.10;;;;;;;11.51;69.76;95579.91;5114820;28;20079;-67
2023/01/20 05:47:00;;;;;;;17.58;5.88;;;;;;;11.52;69.53;95597.31;5114631;28;20043;-65
2023/01/20 05:49:29;;;;;;;12.00;5.32;;;;;;;11.47;69.43;95602.81;5114548;28;20493;-63
2023/01/20 05:51:56;;;;;;;15.15;5.95;;;;;;;11.38;69.79;95617.25;5114578;28;20549;-68
2023/01/20 05:54:25;;;;;;;11.50;5.53;;;;;;;11.32;70.32;95614.97;5114548;28;20130;-68
2023/01/20 05:56:52;;;;;;;15.93;6.50;;;;;;;11.31;70.46;95620.31;5114623;28;20074;-68
2023/01/20 05:59:19;;;;;;;14.73;4.97;;;;;;;11.30;70.68;95621.25;5113567;28;20134;-64
2023/01/20 06:01:46;;;;;;;12.40;5.00;;;;;;;11.29;70.28;95611.72;5114472;28;20109;-64
2023/01/20 06:04:15;;;;;;;19.85;5.22;;;;;;;11.23;70.38;95607.66;5113941;28;20579;-65
2023/01/20 06:06:43;;;;;;;15.52;5.85;;;;;;;11.08;71.30;95607.56;5114357;28;20048;-63
2023/01/20 06:09:10;;;;;;;15.90;5.45;;;;;;;11.05;71.92;95599.06;5114311;28;20122;-65
2023/01/20 06:11:38;;;;;;;11.20;5.20;;;;;;;10.98;72.22;95603.75;5114188;28;20090;-68
2023/01/20 06:14:06;;;;;;;13.90;5.75;;;;;;;10.95;72.90;95583.84;5114216;28;20386;-69
2023/01/20 06:16:34;;;;;;;15.15;5.32;;;;;;;10.91;73.08;95579.72;5114159;28;20051;-65
2023/01/20 06:19:01;;;;;;;11.90;5.38;;;;;;;10.87;73.29;95573.78;5114089;28;20091;-63
2023/01/20 06:21:31;;;;;;;15.70;5.63;;;;;;;10.90;73.10;95578.03;5114182;28;20101;-63
2023/01/20 06:24:00;;;;;;;20.13;5.65;;;;;;;10.93;73.27;95566.56;5113879;28;20105;-69
2023/01/20 06:26:27;;;;;;;8.55;5.15;;;;;;;10.91;73.12;95571.00;5114079;28;20135;-67
2023/01/20 06:28:59;;;;;;;14.00;4.90;;;;;;;10.96;72.64;95575.06;5114017;28;20100;-66
2023/01/20 06:31:27;;;;;;;11.32;4.72;;;;;;;10.99;72.22;95580.13;5113986;28;20059;-63
2023/01/20 06:33:55;;;;;;;14.85;4.32;;;;;;;11.04;71.87;95564.19;5113853;28;20046;-66
2023/01/20 06:36:24;;;;;;;11.15;3.80;;;;;;;11.08;71.05;95572.72;5113807;28;20048;-64
2023/01/20 06:38:53;;;;;;;7.20;3.70;;;;;;;11.12;70.62;95589.94;5113570;28;20138;-66
2023/01/20 06:41:21;;;;;;;12.02;4.22;;;;;;;11.15;69.86;95583.66;5113691;28;20170;-69
2023/01/20 06:43:49;;;;;;;8.70;3.30;;;;;;;11.16;69.87;95590.59;5113607;28;20127;-66
2023/01/20 06:46:17;;;;;;;13.98;3.50;;;;;;;11.18;69.66;95607.91;5113563;28;20122;-67
2023/01/20 06:48:45;;;;;;;7.70;3.20;;;;;;;11.25;69.64;95598.78;5113579;28;20135;-64
2023/01/20 06:51:16;;;;;;;7.65;3.42;;;;;;;11.30;69.46;95595.91;5113568;28;20175;-68
2023/01/20 06:53:44;;;;;;;11.15;4.90;;;;;;;11.31;70.16;95597.59;5113540;28;20050;-65
2023/01/20 06:56:14;;;;;;;7.05;4.10;;;;;;;11.31;71.00;95609.84;5113607;28;20423;-68
2023/01/20 06:58:42;;;;;;;11.88;4.45;;;;;;;11.20;71.04;95589.50;5113544;28;20040;-64
2023/01/20 07:01:12;;;;;;;8.88;3.60;;;;;;;11.21;70.73;95575.47;5113466;28;20112;-64
2023/01/20 07:03:41;;;;;;;10.50;4.07;;;;;;;11.15;71.73;95588.91;5113254;28;20051;-65
2023/01/20 07:06:16;;;;;;;8.05;4.07;;;;;;;11.11;72.06;95596.94;5113438;28;20048;-65
2023/01/20 07:08:44;;;;;;;10.82;4.28;;;;;;;11.14;71.83;95603.78;5113488;28;20127;-63
2023/01/20 07:11:13;;;;;;;8.30;4.50;;;;;;;11.11;72.31;95583.84;5117658;28;20047;-66
2023/01/20 07:13:40;;;;;;;14.57;5.65;;;;;;;11.11;72.76;95583.00;5117722;27;20538;-66
2023/01/20 07:16:08;;;;;;;11.45;4.28;;;;;;;11.10;72.26;95579.53;5117604;28;20044;-66
2023/01/20 07:18:35;;;;;;;13.75;4.40;;;;;;;11.23;71.19;95561.38;5117445;28;20092;-64
2023/01/20 07:21:03;;;;;;;8.85;3.95;;;;;;;11.31;71.40;95573.19;5117494;27;20049;-67
2023/01/20 07:23:32;;;;;;;8.15;3.85;;;;;;;11.33;71.00;95548.63;5117467;28;20055;-68
2023/01/20 07:26:00;;;;;;;8.27;3.72;;;;;;;11.33;70.49;95561.72;5117492;28;20134;-63
2023/01/20 07:28:30;;;;;;;8.27;4.07;;;;;;;11.38;70.42;95549.19;5117382;28;20122;-64
2023/01/20 07:31:04;;;;;;;11.07;3.88;;;;;;;11.56;69.83;95553.47;5117373;28;20149;-67
2023/01/20 07:33:32;;;;;;;7.97;3.75;;;;;;;11.65;70.53;95567.81;5117333;28;20059;-66
2023/01/20 07:36:00;;;;;;;8.27;3.88;;;;;;;11.68;70.32;95531.78;5117388;28;20047;-67
2023/01/20 07:38:27;;;;;;;6.70;3.90;;;;;;;11.79;70.13;95554.75;5117110;28;20480;-65
2023/01/20 07:40:57;;;;;;;7.75;4.07;;;;;;;11.69;69.77;95554.44;5117118;28;20075;-63
2023/01/20 07:43:24;;;;;;;10.13;3.70;;;;;;;11.52;70.86;95560.66;5116974;28;20385;-63
2023/01/20 07:45:56;;;;;;;8.93;4.75;;;;;;;11.42;71.47;95562.97;5117137;28;20483;-67
2023/01/20 07:48:24;;;;;;;12.52;4.68;;;;;;;11.35;72.25;95557.22;5116997;28;20051;-64
2023/01/20 07:51:01;;;;;;;8.45;4.43;;;;;;;11.31;72.92;95576.66;5117007;28;20083;-65
2023/01/20 07:53:28;;;;;;;8.48;4.80;;;;;;;11.14;73.82;95559.28;5116866;28;20059;-65
2023/01/20 07:55:56;;;;;;;11.63;5.13;;;;;;;11.05;74.56;95570.25;5117018;28;20096;-63
2023/01/20 07:58:23;;;;;;;12.60;5.20;;;;;;;10.97;75.28;95552.38;5116831;28;20485;-67
2023/01/20 08:00:50;;;;;;;6.50;4.10;;;;;;;10.99;74.87;95548.72;5116929;28;20074;-64
2023/01/20 08:03:19;;;;;;;9.75;4.25;;;;;;;10.95;75.12;95546.34;5116455;28;20131;-65
2023/01/20 08:05:46;;;;;;;8.07;3.70;;;;;;;11.02;74.77;95555.59;5116684;28;20519;-68
2023/01/20 08:08:13;;;;;;;9.80;3.35;;;;;;;11.03;74.62;95554.66;5116634;28;20511;-64
2023/01/20 08:10:40;;;;;;;8.25;4.43;;;;;;;10.99;75.13;95559.19;5116554;28;20048;-64
2023/01/20 08:13:07;;;;;;;5.55;3.10;;;;;;;11.02;74.95;95552.13;5116616;28;20051;-63
2023/01/20 08:15:34;;;;;;;5.60;3.17;;;;;;;11.08;74.90;95567.47;5116471;28;20532;-68
2023/01/20 08:18:02;;;;;;;8.48;3.35;;;;;;;11.18;74.07;95571.28;5116462;28;20101;-67
2023/01/20 08:20:30;;;;;;;8.25;3.65;;;;;;;11.20;74.47;95566.78;5115773;28;20043;-64
2023/01/20 08:22:58;;;;;;;4.55;3.70;;;;;;;11.19;74.07;95565.09;5116109;28;20062;-66
2023/01/20 08:25:26;;;;;;;7.55;3.50;;;;;;;11.22;73.73;95566.69;5116394;28;20047;-67
2023/01/20 08:27:53;;;;;;;4.97;2.80;;;;;;;11.20;74.37;95568.56;5116128;28;20044;-66
2023/01/20 08:30:20;;;;;;;6.80;2.92;;;;;;;11.14;73.92;95530.50;5116089;28;20043;-62
2023/01/20 08:32:47;;;;;;;6.03;2.83;;;;;;;11.16;73.98;95541.72;5116082;28;20481;-67
2023/01/20 08:35:14;;;;;;;5.05;3.03;;;;;;;11.13;73.76;95520.94;5116195;28;20040;-64
2023/01/20 08:37:43;;;;;;;6.30;2.85;;;;;;;11.18;73.01;95521.53;5115976;28;20060;-64
2023/01/20 08:40:11;;;;;;;5.60;2.67;;;;;;;11.22;72.84;95509.09;5115960;28;20401;-68
2023/01/20 08:42:39;;;;;;;5.43;2.75;;;;;;;11.27;72.60;95501.84;5115970;28;20055;-68
2023/01/20 08:45:08;;;;;;;5.35;2.42;;;;;;;11.31;72.72;95499.88;5116162;28;20051;-64
2023/01/20 08:47:36;;;;;;;8.07;2.70;;;;;;;11.32;71.93;95494.56;5115852;28;20097;-64
2023/01/20 08:50:03;;;;;;;6.57;3.42;;;;;;;11.30;71.77;95493.81;5115777;27;20054;-63
2023/01/20 08:52:31;;;;;;;8.98;3.00;;;;;;;11.29;71.64;95483.44;5115871;28;20043;-63
2023/01/20 08:55:00;;;;;;;6.40;2.95;;;;;;;11.24;71.63;95479.31;5115801;28;20044;-64
2023/01/20 08:57:27;;;;;;;4.85;3.25;;;;;;;11.15;71.54;95471.97;5115711;28;20055;-66
2023/01/20 08:59:55;;;;;;;4.57;2.92;;;;;;;11.11;71.81;95471.31;5115563;28;20523;-65
2023/01/20 09:02:23;;;;;;;9.88;3.42;;;;;;;10.94;73.28;95484.50;5115424;28;20097;-68
2023/01/20 09:04:50;;;;;;;9.90;3.83;;;;;;;10.86;73.90;95474.47;5115396;28;20522;-66
2023/01/20 09:07:18;;;;;;;6.20;4.00;;;;;;;10.82;75.10;95470.34;5115559;28;20066;-63
2023/01/20 09:09:47;;;;;;;10.25;3.65;;;;;;;10.76;74.69;95465.44;5115572;28;20079;-66
2023/01/20 09:12:16;;;;;;;6.40;4.50;;;;;;;10.58;78.73;95492.56;5115446;28;20058;-63
2023/01/20 09:14:43;;;;;;;7.60;4.87;;;;;;;10.34;79.01;95473.78;5115394;27;20078;-63
2023/01/20 09:17:11;;;;;;;9.25;4.50;;;;;;;10.27;81.55;95475.88;5115426;28;20047;-67
2023/01/20 09:19:38;;;;;;;4.47;3.85;;;;;;;10.04;82.02;95475.34;5115145;28;20138;-65
2023/01/20 09:22:05;;;;;;;11.88;5.32;;;;;;;9.99;82.96;95478.19;5115258;28;20043;-64
2023/01/20 09:24:32;;;;;;;7.65;3.97;;;;;;;9.97;83.29;95469.56;5115158;28;20044;-61
2023/01/20 09:26:59;;;;;;;6.68;4.05;;;;;;;9.95;84.00;95481.03;5115200;28;20390;-64
2023/01/20 09:29:28;;;;;;;6.63;4.13;;;;;;;9.84;85.68;95474.59;5115350;28;20086;-65
2023/01/20 09:31:57;;;;;;;6.32;4.35;;;;;;;9.73;87.51;95474.34;5114778;28;20066;-67
2023/01/20 09:34:28;;;;;;;10.27;5.07;;;;;;;9.66;88.08;95479.00;5114175;28;20420;-67
2023/01/20 09:36:57;;;;;;;9.95;5.18;;;;;;;9.69;89.01;95470.19;5114899;28;20074;-64
2023/01/20 09:45:23;;;;;;;7.63;4.93;;;;;;;9.58;88.82;95473.34;5114977;28;20058;-65
2023/01/20 09:47:51;;;;;;;8.73;5.20;;;;;;;9.59;90.14;95464.59;5114989;28;20058;-68
2023/01/20 09:53:15;;;;;;;6.80;5.10;;;;;;;9.53;90.58;95488.41;5114970;28;20397;-62
2023/01/20 09:55:51;;;;;;;6.90;5.20;;;;;;;9.50;90.87;95478.97;5114403;28;20104;-66
2023/01/20 09:58:30;;;;;;;9.05;4.88;;;;;;;9.47;91.29;95456.47;5114819;28;20077;-66
2023/01/20 10:01:10;;;;;;;7.53;5.07;;;;;;;9.45;91.04;95442.66;5114444;28;20384;-64
2023/01/20 10:03:40;;;;;;;;;;;;;;;9.51;90.38;95425.00;5114727;28;20050;-66
2023/01/20 10:06:13;;;;;;;8.93;3.80;;;;;;;9.56;89.58;95425.59;5114258;28;20363;-65
2023/01/20 10:08:47;;;;;;;6.47;3.83;;;;;;;9.60;87.24;95429.72;5114374;28;20052;-65
2023/01/20 10:11:18;;;;;;;5.63;3.80;;;;;;;9.67;87.85;95412.84;5114390;28;20573;-67
2023/01/20 10:13:50;;;;;;;6.50;3.92;;;;;;;9.72;87.30;95408.19;5114238;28;20118;-66
2023/01/20 10:16:31;;;;;;;5.82;4.15;;;;;;;9.70;89.28;95410.03;5114280;28;20549;-67
2023/01/20 10:19:02;;;;;;;8.38;4.85;;;;;;;9.82;89.67;95428.63;5114052;28;20458;-63
2023/01/20 10:21:35;;;;;;;8.93;4.85;;;;;;;9.86;90.69;95444.03;5114046;28;20043;-66
2023/01/20 10:24:09;;;;;;;7.65;5.10;;;;;;;9.83;90.38;95446.81;5114166;28;20077;-63
2023/01/20 10:26:46;;;;;;;12.10;5.72;;;;;;;9.75;91.37;95429.88;5113980;28;20508;-65
2023/01/20 10:29:20;;;;;;;15.93;6.65;;;;;;;9.58;91.63;95408.09;5113890;28;20043;-64
2023/01/20 10:31:57;;;;;;;7.45;6.03;;;;;;;9.50;92.59;95381.53;5114014;28;20127;-61
2023/01/20 10:34:31;;;;;;;5.05;4.20;;;;;;;9.42;90.90;95342.78;5113810;28;20043;-62
2023/01/20 10:37:04;;;;;;;7.70;4.80;;;;;;;9.38;90.83;95296.88;5113833;28;20082;-66
2023/01/20 10:39:38;;;;;;;7.75;3.67;;;;;;;9.23;90.06;95278.50;5113734;28;20048;-63
2023/01/20 10:42:12;;;;;;;3.08;2.60;;;;;;;9.18;87.99;95273.53;5113685;27;20120;-65
2023/01/20 10:44:39;;;;;;;4.93;3.25;;;;;;;9.17;88.63;95290.09;5113415;28;20127;-66
2023/01/20 10:47:24;;;;;;;7.28;3.97;;;;;;;9.14;90.40;95303.31;5113692;28;20047;-65
2023/01/20 10:50:22;;;;;;;5.50;3.55;;;;;;;9.10;91.94;95318.28;5113669;28;20055;-69
2023/01/20 10:53:24;;;;;;;3.42;2.30;;;;;;;8.95;88.78;95335.56;5113710;28;20047;-64
2023/01/20 10:56:04;;;;;;;4.97;1.33;;;;;;;8.79;86.64;95330.28;5080188;28;20054;-66
2023/01/20 10:58:35;;;;;;;6.05;1.65;;;;;;;8.75;86.59;95326.13;5093189;28;20535;-63
2023/01/20 11:01:04;;;;;;;;;;;;;;;8.80;88.38;95346.75;5093597;28;20048;-63
2023/01/20 11:03:37;;;;;;;5.20;1.67;;;;;;;8.84;87.69;95350.91;5093064;28;20526;-63
2023/01/20 11:06:07;;;;;;;3.92;1.58;;;;;;;8.88;88.45;95351.59;5093192;28;20044;-66
2023/01/20 11:08:34;;;;;;;3.70;1.50;;;;;;;8.92;88.50;95364.41;5093169;28;20044;-64
2023/01/20 11:11:11;;;;;;;4.18;2.05;;;;;;;8.90;89.69;95365.41;5093274;28;20071;-64
2023/01/20 11:13:40;;;;;;;7.30;2.58;;;;;;;8.88;89.17;95370.69;5093015;28;20135;-63
2023/01/20 11:16:14;;;;;;;6.00;2.38;;;;;;;8.94;89.47;95366.94;5092967;28;20055;-65
2023/01/20 11:18:54;;;;;;;3.13;2.40;;;;;;;8.90;89.76;95378.44;5093119;28;20047;-63
2023/01/20 11:21:25;;;;;;;4.43;3.67;;;;;;;8.72;89.85;95387.09;5093337;28;20409;-66
2023/01/20 11:23:54;;;;;;;3.75;3.35;;;;;;;8.68;90.13;95393.41;5093030;28;20477;-65
2023/01/20 11:26:25;;;;;;;5.07;3.83;;;;;;;8.59;90.39;95391.22;5093043;28;20044;-67
2023/01/20 11:28:55;;;;;;;4.47;3.78;;;;;;;8.53;92.92;95404.53;5093067;28;20071;-66
2023/01/20 11:31:35;;;;;;;6.22;5.18;;;;;;;8.54;91.29;95401.00;5093018;28;20390;-67
2023/01/20 11:34:22;;;;;;;7.45;4.97;;;;;;;8.60;92.47;95382.47;5093061;28;20048;-66
2023/01/20 11:37:12;;;;;;;11.82;7.97;;;;;;;8.59;91.41;95358.19;5092856;28;20500;-62
2023/01/20 11:39:45;;;;;;;12.63;7.50;;;;;;;8.57;91.34;95331.34;5092876;28;20039;-65
2023/01/20 11:42:19;;;;;;;6.05;5.45;;;;;;;8.53;90.79;95315.91;5092827;28;20095;-64
2023/01/20 11:44:47;;;;;;;7.07;3.95;;;;;;;8.50;90.03;95282.16;5092905;28;20135;-62
2023/01/20 11:47:24;;;;;;;3.15;2.78;;;;;;;8.47;88.02;95267.53;5092887;28;20516;-67
2023/01/20 11:50:25;;;;;;;2.97;2.33;;;;;;;8.55;86.23;95269.81;5092817;28;20551;-64
2023/01/20 11:52:53;;;;;;;2.17;1.90;;;;;;;8.49;85.44;95244.00;5092930;28;20048;-64
2023/01/20 11:55:22;;;;;;;3.72;2.70;;;;;;;8.59;85.94;95229.63;5092666;28;20056;-64